sensor_id;sensor_type;location;lat;lon;timestamp;temperature;humidity
61412;DHT22;47278;49.732;7.690;2022-12-07T00:01:33;3.50;99.90
61412;DHT22;47278;49.732;7.690;2022-12-07T00:04:00;3.50;99.90
61412;DHT22;47278;49.732;7.690;2022-12-07T00:06:32;3.60;99.90
61412;DHT22;47278;49.732;7.690;2022-12-07T00:08:58;3.60;99.90
61412;DHT22;47278;49.732;7.690;2022-12-07T00:11:24;3.70;99.90
61412;DHT22;47278;49.732;7.690;2022-12-07T00:13:53;3.50;99.90
61412;DHT22;47278;49.732;7.690;2022-12-07T00:16:20;3.50;99.90
61412;DHT22;47278;49.732;7.690;2022-12-07T00:18:47;3.50;99.90
61412;DHT22;47278;49.732;7.690;2022-12-07T00:21:13;3.40;99.90
61412;DHT22;47278;49.732;7.690;2022-12-07T00:23:39;3.40;99.90
61412;DHT22;47278;49.732;7.690;2022-12-07T00:26:06;3.40;99.90
61412;DHT22;47278;49.732;7.690;2022-12-07T00:28:32;3.40;99.90
61412;DHT22;47278;49.732;7.690;2022-12-07T00:31:02;3.40;99.90
61412;DHT22;47278;49.732;7.690;2022-12-07T00:33:28;3.30;99.90
61412;DHT22;47278;49.732;7.690;2022-12-07T00:35:57;3.30;99.90
61412;DHT22;47278;49.732;7.690;2022-12-07T00:38:23;3.40;99.90
61412;DHT22;47278;49.732;7.690;2022-12-07T00:40:55;3.30;99.90
61412;DHT22;47278;49.732;7.690;2022-12-07T00:43:21;3.30;99.90
61412;DHT22;47278;49.732;7.690;2022-12-07T00:45:47;3.30;99.90
61412;DHT22;47278;49.732;7.690;2022-12-07T00:48:12;3.30;99.90
61412;DHT22;47278;49.732;7.690;2022-12-07T00:50:38;3.30;99.90
61412;DHT22;47278;49.732;7.690;2022-12-07T00:53:03;3.20;99.90
61412;DHT22;47278;49.732;7.690;2022-12-07T00:55:32;3.20;99.90
61412;DHT22;47278;49.732;7.690;2022-12-07T00:57:57;3.20;99.90
61412;DHT22;47278;49.732;7.690;2022-12-07T01:00:23;3.20;99.90
61412;DHT22;47278;49.732;7.690;2022-12-07T01:02:48;3.20;99.90
61412;DHT22;47278;49.732;7.690;2022-12-07T01:05:14;3.30;99.90
61412;DHT22;47278;49.732;7.690;2022-12-07T01:07:40;3.30;99.90
61412;DHT22;47278;49.732;7.690;2022-12-07T01:10:05;3.30;99.90
61412;DHT22;47278;49.732;7.690;2022-12-07T01:12:31;3.30;99.90
61412;DHT22;47278;49.732;7.690;2022-12-07T01:14:57;3.30;99.90
61412;DHT22;47278;49.732;7.690;2022-12-07T01:17:22;3.30;99.90
61412;DHT22;47278;49.732;7.690;2022-12-07T01:19:48;3.30;99.90
61412;DHT22;47278;49.732;7.690;2022-12-07T01:22:13;3.40;99.90
61412;DHT22;47278;49.732;7.690;2022-12-07T01:24:39;3.30;99.90
61412;DHT22;47278;49.732;7.690;2022-12-07T01:27:04;3.40;99.90
61412;DHT22;47278;49.732;7.690;2022-12-07T01:29:30;3.30;99.90
61412;DHT22;47278;49.732;7.690;2022-12-07T01:31:55;3.20;99.90
61412;DHT22;47278;49.732;7.690;2022-12-07T01:34:21;3.20;99.90
61412;DHT22;47278;49.732;7.690;2022-12-07T01:36:47;3.20;99.90
61412;DHT22;47278;49.732;7.690;2022-12-07T01:39:12;3.40;99.90
61412;DHT22;47278;49.732;7.690;2022-12-07T01:41:39;3.20;99.90
61412;DHT22;47278;49.732;7.690;2022-12-07T01:44:19;3.20;99.90
61412;DHT22;47278;49.732;7.690;2022-12-07T01:46:46;3.30;99.90
61412;DHT22;47278;49.732;7.690;2022-12-07T01:49:17;3.30;99.90
61412;DHT22;47278;49.732;7.690;2022-12-07T01:51:44;3.30;99.90
61412;DHT22;47278;49.732;7.690;2022-12-07T01:54:11;3.40;99.90
61412;DHT22;47278;49.732;7.690;2022-12-07T01:56:38;3.40;99.90
61412;DHT22;47278;49.732;7.690;2022-12-07T01:59:05;3.50;99.90
61412;DHT22;47278;49.732;7.690;2022-12-07T02:01:31;3.60;99.90
61412;DHT22;47278;49.732;7.690;2022-12-07T02:03:56;3.40;99.90
61412;DHT22;47278;49.732;7.690;2022-12-07T02:06:23;3.30;99.90
61412;DHT22;47278;49.732;7.690;2022-12-07T02:08:49;3.30;99.90
61412;DHT22;47278;49.732;7.690;2022-12-07T02:11:15;3.30;99.90
61412;DHT22;47278;49.732;7.690;2022-12-07T02:13:42;3.30;99.90
61412;DHT22;47278;49.732;7.690;2022-12-07T02:26:43;3.40;99.90
61412;DHT22;47278;49.732;7.690;2022-12-07T02:31:36;3.50;99.90
61412;DHT22;47278;49.732;7.690;2022-12-07T02:34:14;3.60;99.90
61412;DHT22;47278;49.732;7.690;2022-12-07T02:36:44;3.70;99.90
61412;DHT22;47278;49.732;7.690;2022-12-07T02:39:12;3.70;99.90
61412;DHT22;47278;49.732;7.690;2022-12-07T02:41:43;3.80;99.90
61412;DHT22;47278;49.732;7.690;2022-12-07T02:44:10;3.80;99.90
61412;DHT22;47278;49.732;7.690;2022-12-07T02:46:42;3.70;99.90
61412;DHT22;47278;49.732;7.690;2022-12-07T02:49:08;3.60;99.90
61412;DHT22;47278;49.732;7.690;2022-12-07T02:51:38;3.60;99.90
61412;DHT22;47278;49.732;7.690;2022-12-07T02:54:07;3.50;99.90
61412;DHT22;47278;49.732;7.690;2022-12-07T03:01:38;3.80;99.90
61412;DHT22;47278;49.732;7.690;2022-12-07T03:04:21;3.90;99.90
61412;DHT22;47278;49.732;7.690;2022-12-07T03:06:53;3.90;99.90
61412;DHT22;47278;49.732;7.690;2022-12-07T03:09:22;3.90;99.90
61412;DHT22;47278;49.732;7.690;2022-12-07T03:11:54;3.90;99.90
61412;DHT22;47278;49.732;7.690;2022-12-07T03:14:34;3.90;99.90
61412;DHT22;47278;49.732;7.690;2022-12-07T03:17:03;3.90;99.90
61412;DHT22;47278;49.732;7.690;2022-12-07T03:19:30;3.90;99.90
61412;DHT22;47278;49.732;7.690;2022-12-07T03:22:00;3.80;99.90
61412;DHT22;47278;49.732;7.690;2022-12-07T03:24:33;3.80;99.90
61412;DHT22;47278;49.732;7.690;2022-12-07T03:27:03;3.80;99.90
61412;DHT22;47278;49.732;7.690;2022-12-07T03:29:33;3.70;99.90
61412;DHT22;47278;49.732;7.690;2022-12-07T03:32:01;3.80;99.90
61412;DHT22;47278;49.732;7.690;2022-12-07T03:34:29;3.80;99.90
61412;DHT22;47278;49.732;7.690;2022-12-07T03:39:29;3.60;99.90
61412;DHT22;47278;49.732;7.690;2022-12-07T03:41:57;3.60;99.90
61412;DHT22;47278;49.732;7.690;2022-12-07T03:44:24;3.70;99.90
61412;DHT22;47278;49.732;7.690;2022-12-07T03:47:06;3.70;99.90
61412;DHT22;47278;49.732;7.690;2022-12-07T03:49:43;3.70;99.90
61412;DHT22;47278;49.732;7.690;2022-12-07T03:57:20;3.80;99.90
61412;DHT22;47278;49.732;7.690;2022-12-07T03:59:46;3.90;99.90
61412;DHT22;47278;49.732;7.690;2022-12-07T04:02:13;3.90;99.90
61412;DHT22;47278;49.732;7.690;2022-12-07T04:04:38;4.00;99.90
61412;DHT22;47278;49.732;7.690;2022-12-07T04:07:04;1.80;99.90
61412;DHT22;47278;49.732;7.690;2022-12-07T04:09:29;4.20;99.90
61412;DHT22;47278;49.732;7.690;2022-12-07T04:11:55;4.00;99.90
61412;DHT22;47278;49.732;7.690;2022-12-07T04:14:20;4.00;99.90
61412;DHT22;47278;49.732;7.690;2022-12-07T04:16:56;4.00;99.90
61412;DHT22;47278;49.732;7.690;2022-12-07T04:19:23;4.20;99.90
61412;DHT22;47278;49.732;7.690;2022-12-07T04:21:49;3.20;99.90
61412;DHT22;47278;49.732;7.690;2022-12-07T04:24:14;4.10;99.90
61412;DHT22;47278;49.732;7.690;2022-12-07T04:26:40;4.00;99.90
61412;DHT22;47278;49.732;7.690;2022-12-07T04:29:06;3.80;99.90
61412;DHT22;47278;49.732;7.690;2022-12-07T04:31:32;3.70;99.90
61412;DHT22;47278;49.732;7.690;2022-12-07T04:33:58;3.70;99.90
61412;DHT22;47278;49.732;7.690;2022-12-07T04:36:23;3.80;99.90
61412;DHT22;47278;49.732;7.690;2022-12-07T04:38:49;3.80;99.90
61412;DHT22;47278;49.732;7.690;2022-12-07T04:41:14;3.90;99.90
61412;DHT22;47278;49.732;7.690;2022-12-07T04:43:40;3.90;99.90
61412;DHT22;47278;49.732;7.690;2022-12-07T04:46:05;3.90;99.90
61412;DHT22;47278;49.732;7.690;2022-12-07T04:48:31;4.00;99.90
61412;DHT22;47278;49.732;7.690;2022-12-07T04:50:57;3.80;99.90
61412;DHT22;47278;49.732;7.690;2022-12-07T04:53:25;3.80;99.90
61412;DHT22;47278;49.732;7.690;2022-12-07T04:55:50;5.80;99.90
61412;DHT22;47278;49.732;7.690;2022-12-07T04:58:16;3.50;99.90
61412;DHT22;47278;49.732;7.690;2022-12-07T05:00:42;3.60;99.90
61412;DHT22;47278;49.732;7.690;2022-12-07T05:03:07;3.60;99.90
61412;DHT22;47278;49.732;7.690;2022-12-07T05:05:33;4.10;99.90
61412;DHT22;47278;49.732;7.690;2022-12-07T05:07:58;3.60;99.90
61412;DHT22;47278;49.732;7.690;2022-12-07T05:10:24;3.60;99.90
61412;DHT22;47278;49.732;7.690;2022-12-07T05:12:49;3.60;99.90
61412;DHT22;47278;49.732;7.690;2022-12-07T05:15:15;3.60;99.90
61412;DHT22;47278;49.732;7.690;2022-12-07T05:17:41;3.70;99.90
61412;DHT22;47278;49.732;7.690;2022-12-07T05:20:07;3.60;99.90
61412;DHT22;47278;49.732;7.690;2022-12-07T05:22:33;3.60;99.90
61412;DHT22;47278;49.732;7.690;2022-12-07T05:24:58;3.70;99.90
61412;DHT22;47278;49.732;7.690;2022-12-07T05:27:24;3.80;99.90
61412;DHT22;47278;49.732;7.690;2022-12-07T05:29:50;3.80;99.90
61412;DHT22;47278;49.732;7.690;2022-12-07T05:32:15;3.90;99.90
61412;DHT22;47278;49.732;7.690;2022-12-07T05:34:41;3.70;99.90
61412;DHT22;47278;49.732;7.690;2022-12-07T05:37:07;3.70;99.90
61412;DHT22;47278;49.732;7.690;2022-12-07T05:39:32;3.80;99.90
61412;DHT22;47278;49.732;7.690;2022-12-07T05:41:58;3.80;99.90
61412;DHT22;47278;49.732;7.690;2022-12-07T05:44:39;3.80;99.90
61412;DHT22;47278;49.732;7.690;2022-12-07T05:47:04;3.80;99.90
61412;DHT22;47278;49.732;7.690;2022-12-07T05:49:30;3.90;99.90
61412;DHT22;47278;49.732;7.690;2022-12-07T05:51:56;3.80;99.90
61412;DHT22;47278;49.732;7.690;2022-12-07T05:54:21;3.90;99.90
61412;DHT22;47278;49.732;7.690;2022-12-07T05:56:47;3.90;99.90
61412;DHT22;47278;49.732;7.690;2022-12-07T05:59:12;3.90;99.90
61412;DHT22;47278;49.732;7.690;2022-12-07T06:01:59;3.90;99.90
61412;DHT22;47278;49.732;7.690;2022-12-07T06:04:25;4.00;99.90
61412;DHT22;47278;49.732;7.690;2022-12-07T06:06:51;4.10;99.90
61412;DHT22;47278;49.732;7.690;2022-12-07T06:09:20;4.10;99.90
61412;DHT22;47278;49.732;7.690;2022-12-07T06:11:46;4.10;99.90
61412;DHT22;47278;49.732;7.690;2022-12-07T06:14:30;4.10;99.90
61412;DHT22;47278;49.732;7.690;2022-12-07T06:16:56;5.00;99.90
61412;DHT22;47278;49.732;7.690;2022-12-07T06:19:21;4.10;99.90
61412;DHT22;47278;49.732;7.690;2022-12-07T06:21:47;4.10;99.90
61412;DHT22;47278;49.732;7.690;2022-12-07T06:24:13;4.10;99.90
61412;DHT22;47278;49.732;7.690;2022-12-07T06:26:39;4.10;99.90
61412;DHT22;47278;49.732;7.690;2022-12-07T06:29:05;4.10;99.90
61412;DHT22;47278;49.732;7.690;2022-12-07T06:31:31;4.10;99.90
61412;DHT22;47278;49.732;7.690;2022-12-07T06:34:00;4.10;99.90
61412;DHT22;47278;49.732;7.690;2022-12-07T06:36:26;4.00;99.90
61412;DHT22;47278;49.732;7.690;2022-12-07T06:38:51;3.90;99.90
61412;DHT22;47278;49.732;7.690;2022-12-07T06:41:17;4.00;99.90
61412;DHT22;47278;49.732;7.690;2022-12-07T06:43:43;4.10;99.90
61412;DHT22;47278;49.732;7.690;2022-12-07T06:46:08;4.20;99.90
61412;DHT22;47278;49.732;7.690;2022-12-07T06:48:34;4.20;99.90
61412;DHT22;47278;49.732;7.690;2022-12-07T06:50:59;4.20;99.90
61412;DHT22;47278;49.732;7.690;2022-12-07T06:53:25;4.10;99.90
61412;DHT22;47278;49.732;7.690;2022-12-07T06:55:50;4.20;99.90
61412;DHT22;47278;49.732;7.690;2022-12-07T06:58:16;4.20;99.90
61412;DHT22;47278;49.732;7.690;2022-12-07T07:00:42;4.10;99.90
61412;DHT22;47278;49.732;7.690;2022-12-07T07:03:08;4.10;99.90
61412;DHT22;47278;49.732;7.690;2022-12-07T07:05:33;4.10;99.90
61412;DHT22;47278;49.732;7.690;2022-12-07T07:07:59;4.10;99.90
61412;DHT22;47278;49.732;7.690;2022-12-07T07:10:25;4.10;99.90
61412;DHT22;47278;49.732;7.690;2022-12-07T07:12:50;4.00;99.90
61412;DHT22;47278;49.732;7.690;2022-12-07T07:15:16;4.10;99.90
61412;DHT22;47278;49.732;7.690;2022-12-07T07:17:42;4.10;99.90
61412;DHT22;47278;49.732;7.690;2022-12-07T07:20:08;4.10;99.90
61412;DHT22;47278;49.732;7.690;2022-12-07T07:22:34;4.10;99.90
61412;DHT22;47278;49.732;7.690;2022-12-07T07:24:59;4.10;99.90
61412;DHT22;47278;49.732;7.690;2022-12-07T07:27:25;4.10;99.90
61412;DHT22;47278;49.732;7.690;2022-12-07T07:29:50;4.00;99.90
61412;DHT22;47278;49.732;7.690;2022-12-07T07:32:16;4.10;99.90
61412;DHT22;47278;49.732;7.690;2022-12-07T07:34:41;4.00;99.90
61412;DHT22;47278;49.732;7.690;2022-12-07T07:37:07;4.00;99.90
61412;DHT22;47278;49.732;7.690;2022-12-07T07:39:32;4.00;99.90
61412;DHT22;47278;49.732;7.690;2022-12-07T07:41:58;4.00;99.90
61412;DHT22;47278;49.732;7.690;2022-12-07T07:44:23;3.80;99.90
61412;DHT22;47278;49.732;7.690;2022-12-07T07:46:49;3.80;99.90
61412;DHT22;47278;49.732;7.690;2022-12-07T07:49:15;3.80;99.90
61412;DHT22;47278;49.732;7.690;2022-12-07T07:51:40;3.90;99.90
61412;DHT22;47278;49.732;7.690;2022-12-07T07:54:06;3.90;99.90
61412;DHT22;47278;49.732;7.690;2022-12-07T07:56:37;3.90;99.90
61412;DHT22;47278;49.732;7.690;2022-12-07T07:59:03;3.90;99.90
61412;DHT22;47278;49.732;7.690;2022-12-07T08:01:28;3.90;99.90
61412;DHT22;47278;49.732;7.690;2022-12-07T08:03:54;3.90;99.90
61412;DHT22;47278;49.732;7.690;2022-12-07T08:06:19;3.90;99.90
61412;DHT22;47278;49.732;7.690;2022-12-07T08:08:45;3.90;99.90
61412;DHT22;47278;49.732;7.690;2022-12-07T08:11:11;3.90;99.90
61412;DHT22;47278;49.732;7.690;2022-12-07T08:13:36;3.90;99.90
61412;DHT22;47278;49.732;7.690;2022-12-07T08:16:03;3.90;99.90
61412;DHT22;47278;49.732;7.690;2022-12-07T08:18:29;3.90;99.90
61412;DHT22;47278;49.732;7.690;2022-12-07T08:20:58;4.10;99.90
61412;DHT22;47278;49.732;7.690;2022-12-07T08:23:25;4.20;99.90
61412;DHT22;47278;49.732;7.690;2022-12-07T08:25:50;4.20;99.90
61412;DHT22;47278;49.732;7.690;2022-12-07T08:28:16;4.20;99.90
61412;DHT22;47278;49.732;7.690;2022-12-07T08:30:41;4.30;99.90
61412;DHT22;47278;49.732;7.690;2022-12-07T08:33:07;4.40;99.90
61412;DHT22;47278;49.732;7.690;2022-12-07T08:35:34;4.40;99.90
61412;DHT22;47278;49.732;7.690;2022-12-07T08:37:59;4.40;99.90
61412;DHT22;47278;49.732;7.690;2022-12-07T08:40:27;4.40;99.90
61412;DHT22;47278;49.732;7.690;2022-12-07T08:42:53;4.40;99.90
61412;DHT22;47278;49.732;7.690;2022-12-07T08:45:19;4.40;99.90
61412;DHT22;47278;49.732;7.690;2022-12-07T08:47:46;4.40;99.90
61412;DHT22;47278;49.732;7.690;2022-12-07T08:50:13;4.50;99.90
61412;DHT22;47278;49.732;7.690;2022-12-07T08:52:39;2.00;99.90
61412;DHT22;47278;49.732;7.690;2022-12-07T08:55:06;4.20;99.90
61412;DHT22;47278;49.732;7.690;2022-12-07T08:57:32;4.20;99.90
61412;DHT22;47278;49.732;7.690;2022-12-07T08:59:59;4.10;99.90
61412;DHT22;47278;49.732;7.690;2022-12-07T09:02:25;4.20;99.90
61412;DHT22;47278;49.732;7.690;2022-12-07T09:04:51;4.30;99.90
61412;DHT22;47278;49.732;7.690;2022-12-07T09:07:16;4.20;99.90
61412;DHT22;47278;49.732;7.690;2022-12-07T09:09:42;4.20;99.90
61412;DHT22;47278;49.732;7.690;2022-12-07T09:12:07;4.30;99.90
61412;DHT22;47278;49.732;7.690;2022-12-07T09:14:33;4.40;99.90
61412;DHT22;47278;49.732;7.690;2022-12-07T09:17:08;4.50;99.90
61412;DHT22;47278;49.732;7.690;2022-12-07T09:19:34;4.70;99.90
61412;DHT22;47278;49.732;7.690;2022-12-07T09:22:00;5.00;99.90
61412;DHT22;47278;49.732;7.690;2022-12-07T09:24:25;5.10;99.90
61412;DHT22;47278;49.732;7.690;2022-12-07T09:26:51;5.30;99.90
61412;DHT22;47278;49.732;7.690;2022-12-07T09:29:16;5.30;99.90
61412;DHT22;47278;49.732;7.690;2022-12-07T09:31:42;5.40;99.90
61412;DHT22;47278;49.732;7.690;2022-12-07T09:34:07;6.10;99.90
61412;DHT22;47278;49.732;7.690;2022-12-07T09:36:33;5.70;99.90
61412;DHT22;47278;49.732;7.690;2022-12-07T09:38:58;5.80;99.90
61412;DHT22;47278;49.732;7.690;2022-12-07T09:41:25;5.80;99.90
61412;DHT22;47278;49.732;7.690;2022-12-07T09:43:52;5.80;99.90
61412;DHT22;47278;49.732;7.690;2022-12-07T09:46:18;5.90;99.90
61412;DHT22;47278;49.732;7.690;2022-12-07T09:48:44;6.00;99.90
61412;DHT22;47278;49.732;7.690;2022-12-07T09:51:21;6.10;99.90
61412;DHT22;47278;49.732;7.690;2022-12-07T09:53:47;6.10;99.90
61412;DHT22;47278;49.732;7.690;2022-12-07T09:56:13;6.10;99.90
61412;DHT22;47278;49.732;7.690;2022-12-07T09:58:39;6.20;99.90
61412;DHT22;47278;49.732;7.690;2022-12-07T10:01:09;6.20;99.90
61412;DHT22;47278;49.732;7.690;2022-12-07T10:03:40;6.10;99.90
61412;DHT22;47278;49.732;7.690;2022-12-07T10:06:06;6.20;99.90
61412;DHT22;47278;49.732;7.690;2022-12-07T10:08:32;6.10;99.90
61412;DHT22;47278;49.732;7.690;2022-12-07T10:10:59;6.10;99.90
61412;DHT22;47278;49.732;7.690;2022-12-07T10:13:44;6.10;99.90
61412;DHT22;47278;49.732;7.690;2022-12-07T10:18:49;6.10;99.90
61412;DHT22;47278;49.732;7.690;2022-12-07T10:21:15;6.20;99.90
61412;DHT22;47278;49.732;7.690;2022-12-07T10:26:31;6.60;99.90
61412;DHT22;47278;49.732;7.690;2022-12-07T10:29:02;6.80;99.90
61412;DHT22;47278;49.732;7.690;2022-12-07T10:31:28;6.90;99.90
61412;DHT22;47278;49.732;7.690;2022-12-07T10:33:58;6.90;99.90
61412;DHT22;47278;49.732;7.690;2022-12-07T10:36:30;6.80;99.90
61412;DHT22;47278;49.732;7.690;2022-12-07T10:39:01;6.70;99.90
61412;DHT22;47278;49.732;7.690;2022-12-07T10:41:27;6.70;99.90
61412;DHT22;47278;49.732;7.690;2022-12-07T10:43:53;6.70;99.90
61412;DHT22;47278;49.732;7.690;2022-12-07T10:48:52;6.60;99.90
61412;DHT22;47278;49.732;7.690;2022-12-07T10:53:54;6.60;99.90
61412;DHT22;47278;49.732;7.690;2022-12-07T11:01:50;6.70;99.90
61412;DHT22;47278;49.732;7.690;2022-12-07T11:11:43;6.90;99.90
61412;DHT22;47278;49.732;7.690;2022-12-07T11:21:45;7.20;99.90
61412;DHT22;47278;49.732;7.690;2022-12-07T11:24:17;7.20;99.90
61412;DHT22;47278;49.732;7.690;2022-12-07T11:36:54;7.50;99.90
61412;DHT22;47278;49.732;7.690;2022-12-07T11:41:52;7.80;99.90
61412;DHT22;47278;49.732;7.690;2022-12-07T11:44:25;7.40;99.90
61412;DHT22;47278;49.732;7.690;2022-12-07T11:46:58;7.30;99.90
61412;DHT22;47278;49.732;7.690;2022-12-07T11:51:51;7.30;99.90
61412;DHT22;47278;49.732;7.690;2022-12-07T11:54:19;7.30;99.90
61412;DHT22;47278;49.732;7.690;2022-12-07T11:56:47;7.30;99.90
61412;DHT22;47278;49.732;7.690;2022-12-07T11:59:23;7.30;99.90
61412;DHT22;47278;49.732;7.690;2022-12-07T12:01:53;7.30;99.90
61412;DHT22;47278;49.732;7.690;2022-12-07T12:06:45;7.10;99.90
61412;DHT22;47278;49.732;7.690;2022-12-07T12:16:53;6.80;99.90
61412;DHT22;47278;49.732;7.690;2022-12-07T12:22:07;8.90;99.90
61412;DHT22;47278;49.732;7.690;2022-12-07T12:24:35;6.80;99.90
61412;DHT22;47278;49.732;7.690;2022-12-07T12:27:05;6.60;99.90
61412;DHT22;47278;49.732;7.690;2022-12-07T12:29:38;6.60;99.90
61412;DHT22;47278;49.732;7.690;2022-12-07T12:32:13;6.60;99.90
61412;DHT22;47278;49.732;7.690;2022-12-07T12:42:53;6.60;99.90
61412;DHT22;47278;49.732;7.690;2022-12-07T12:45:23;6.70;99.90
61412;DHT22;47278;49.732;7.690;2022-12-07T12:50:19;6.80;99.90
61412;DHT22;47278;49.732;7.690;2022-12-07T12:52:47;6.80;99.90
61412;DHT22;47278;49.732;7.690;2022-12-07T12:55:16;6.80;99.90
61412;DHT22;47278;49.732;7.690;2022-12-07T12:57:47;6.80;99.90
61412;DHT22;47278;49.732;7.690;2022-12-07T13:00:17;6.80;99.90
61412;DHT22;47278;49.732;7.690;2022-12-07T13:02:50;6.90;99.90
61412;DHT22;47278;49.732;7.690;2022-12-07T13:05:21;7.00;99.90
61412;DHT22;47278;49.732;7.690;2022-12-07T13:07:54;7.10;99.90
61412;DHT22;47278;49.732;7.690;2022-12-07T13:15:55;6.90;99.90
61412;DHT22;47278;49.732;7.690;2022-12-07T13:18:39;6.90;99.90
61412;DHT22;47278;49.732;7.690;2022-12-07T13:23:37;6.90;99.90
61412;DHT22;47278;49.732;7.690;2022-12-07T13:26:49;6.90;99.90
61412;DHT22;47278;49.732;7.690;2022-12-07T13:28:50;6.80;99.90
61412;DHT22;47278;49.732;7.690;2022-12-07T13:31:23;6.80;99.90
61412;DHT22;47278;49.732;7.690;2022-12-07T13:33:50;6.80;99.90
61412;DHT22;47278;49.732;7.690;2022-12-07T13:36:20;6.90;99.90
61412;DHT22;47278;49.732;7.690;2022-12-07T13:38:53;6.90;99.90
61412;DHT22;47278;49.732;7.690;2022-12-07T13:41:20;6.90;99.90
61412;DHT22;47278;49.732;7.690;2022-12-07T13:43:48;4.30;99.90
61412;DHT22;47278;49.732;7.690;2022-12-07T13:46:14;6.80;99.90
61412;DHT22;47278;49.732;7.690;2022-12-07T13:48:44;7.00;99.90
61412;DHT22;47278;49.732;7.690;2022-12-07T13:51:16;6.80;99.90
61412;DHT22;47278;49.732;7.690;2022-12-07T13:53:46;7.20;99.90
61412;DHT22;47278;49.732;7.690;2022-12-07T13:56:12;7.50;99.90
61412;DHT22;47278;49.732;7.690;2022-12-07T13:58:39;7.60;99.90
61412;DHT22;47278;49.732;7.690;2022-12-07T14:01:05;7.20;99.90
61412;DHT22;47278;49.732;7.690;2022-12-07T14:03:32;7.00;99.90
61412;DHT22;47278;49.732;7.690;2022-12-07T14:08:29;7.00;99.90
61412;DHT22;47278;49.732;7.690;2022-12-07T14:10:55;7.00;99.90
61412;DHT22;47278;49.732;7.690;2022-12-07T14:13:38;7.00;99.90
61412;DHT22;47278;49.732;7.690;2022-12-07T14:16:54;6.80;99.90
61412;DHT22;47278;49.732;7.690;2022-12-07T14:18:53;6.80;99.90
61412;DHT22;47278;49.732;7.690;2022-12-07T14:21:19;6.70;99.90
61412;DHT22;47278;49.732;7.690;2022-12-07T14:24:02;6.70;99.90
61412;DHT22;47278;49.732;7.690;2022-12-07T14:26:28;6.70;99.90
61412;DHT22;47278;49.732;7.690;2022-12-07T14:28:59;6.70;99.90
61412;DHT22;47278;49.732;7.690;2022-12-07T14:31:39;6.60;99.90
61412;DHT22;47278;49.732;7.690;2022-12-07T14:34:04;6.60;99.90
61412;DHT22;47278;49.732;7.690;2022-12-07T14:36:30;6.50;99.90
61412;DHT22;47278;49.732;7.690;2022-12-07T14:38:55;6.60;99.90
61412;DHT22;47278;49.732;7.690;2022-12-07T14:41:23;6.50;99.90
61412;DHT22;47278;49.732;7.690;2022-12-07T14:44:09;6.50;99.90
61412;DHT22;47278;49.732;7.690;2022-12-07T14:46:36;6.40;99.90
61412;DHT22;47278;49.732;7.690;2022-12-07T14:49:01;5.80;99.90
61412;DHT22;47278;49.732;7.690;2022-12-07T14:51:27;6.40;99.90
61412;DHT22;47278;49.732;7.690;2022-12-07T14:53:52;6.30;99.90
61412;DHT22;47278;49.732;7.690;2022-12-07T14:56:18;6.30;99.90
61412;DHT22;47278;49.732;7.690;2022-12-07T14:58:44;6.20;99.90
61412;DHT22;47278;49.732;7.690;2022-12-07T15:01:09;6.20;99.90
61412;DHT22;47278;49.732;7.690;2022-12-07T15:03:35;7.70;99.90
61412;DHT22;47278;49.732;7.690;2022-12-07T15:06:05;6.10;99.90
61412;DHT22;47278;49.732;7.690;2022-12-07T15:08:31;6.00;99.90
61412;DHT22;47278;49.732;7.690;2022-12-07T15:10:56;6.00;99.90
61412;DHT22;47278;49.732;7.690;2022-12-07T15:13:22;5.90;99.90
61412;DHT22;47278;49.732;7.690;2022-12-07T15:16:08;5.80;99.90
61412;DHT22;47278;49.732;7.690;2022-12-07T15:18:34;5.70;99.90
61412;DHT22;47278;49.732;7.690;2022-12-07T15:21:00;5.60;99.90
61412;DHT22;47278;49.732;7.690;2022-12-07T15:23:25;5.70;99.90
61412;DHT22;47278;49.732;7.690;2022-12-07T15:25:51;5.40;99.90
61412;DHT22;47278;49.732;7.690;2022-12-07T15:28:16;5.20;99.90
61412;DHT22;47278;49.732;7.690;2022-12-07T15:30:42;5.10;99.90
61412;DHT22;47278;49.732;7.690;2022-12-07T15:33:08;5.00;99.90
61412;DHT22;47278;49.732;7.690;2022-12-07T15:35:38;4.90;99.90
61412;DHT22;47278;49.732;7.690;2022-12-07T15:38:03;4.80;99.90
61412;DHT22;47278;49.732;7.690;2022-12-07T15:40:29;4.90;99.90
61412;DHT22;47278;49.732;7.690;2022-12-07T15:42:54;4.70;99.90
61412;DHT22;47278;49.732;7.690;2022-12-07T15:45:20;6.80;99.90
61412;DHT22;47278;49.732;7.690;2022-12-07T15:47:45;4.60;99.90
61412;DHT22;47278;49.732;7.690;2022-12-07T15:50:12;4.50;99.90
61412;DHT22;47278;49.732;7.690;2022-12-07T15:52:38;4.40;99.90
61412;DHT22;47278;49.732;7.690;2022-12-07T15:55:05;4.40;99.90
61412;DHT22;47278;49.732;7.690;2022-12-07T15:57:31;4.30;99.90
61412;DHT22;47278;49.732;7.690;2022-12-07T15:59:57;4.30;99.90
61412;DHT22;47278;49.732;7.690;2022-12-07T16:02:23;4.10;99.90
61412;DHT22;47278;49.732;7.690;2022-12-07T16:04:49;2.70;99.90
61412;DHT22;47278;49.732;7.690;2022-12-07T16:07:15;4.00;99.90
61412;DHT22;47278;49.732;7.690;2022-12-07T16:09:44;3.90;99.90
61412;DHT22;47278;49.732;7.690;2022-12-07T16:12:10;3.90;99.90
61412;DHT22;47278;49.732;7.690;2022-12-07T16:14:36;3.80;99.90
61412;DHT22;47278;49.732;7.690;2022-12-07T16:17:01;3.70;99.90
61412;DHT22;47278;49.732;7.690;2022-12-07T16:19:27;3.70;99.90
61412;DHT22;47278;49.732;7.690;2022-12-07T16:21:53;3.60;99.90
61412;DHT22;47278;49.732;7.690;2022-12-07T16:24:18;3.60;99.90
61412;DHT22;47278;49.732;7.690;2022-12-07T16:26:44;3.60;99.90
61412;DHT22;47278;49.732;7.690;2022-12-07T16:29:10;3.60;99.90
61412;DHT22;47278;49.732;7.690;2022-12-07T16:31:36;3.60;99.90
61412;DHT22;47278;49.732;7.690;2022-12-07T16:34:02;3.60;99.90
61412;DHT22;47278;49.732;7.690;2022-12-07T16:36:27;3.50;99.90
61412;DHT22;47278;49.732;7.690;2022-12-07T16:38:53;3.50;99.90
61412;DHT22;47278;49.732;7.690;2022-12-07T16:41:19;3.50;99.90
61412;DHT22;47278;49.732;7.690;2022-12-07T16:43:44;3.50;99.90
61412;DHT22;47278;49.732;7.690;2022-12-07T16:46:10;3.50;99.90
61412;DHT22;47278;49.732;7.690;2022-12-07T16:48:39;3.50;99.90
61412;DHT22;47278;49.732;7.690;2022-12-07T16:51:05;3.60;99.90
61412;DHT22;47278;49.732;7.690;2022-12-07T16:53:31;3.50;99.90
61412;DHT22;47278;49.732;7.690;2022-12-07T16:55:56;3.50;99.90
61412;DHT22;47278;49.732;7.690;2022-12-07T16:58:22;3.50;99.90
61412;DHT22;47278;49.732;7.690;2022-12-07T17:00:48;3.50;99.90
61412;DHT22;47278;49.732;7.690;2022-12-07T17:03:13;3.60;99.90
61412;DHT22;47278;49.732;7.690;2022-12-07T17:05:40;3.60;99.90
61412;DHT22;47278;49.732;7.690;2022-12-07T17:08:06;3.60;99.90
61412;DHT22;47278;49.732;7.690;2022-12-07T17:10:33;3.60;99.90
61412;DHT22;47278;49.732;7.690;2022-12-07T17:12:59;3.60;99.90
61412;DHT22;47278;49.732;7.690;2022-12-07T17:15:24;3.60;99.90
61412;DHT22;47278;49.732;7.690;2022-12-07T17:17:59;3.60;99.90
61412;DHT22;47278;49.732;7.690;2022-12-07T17:20:26;3.60;99.90
61412;DHT22;47278;49.732;7.690;2022-12-07T17:22:51;3.50;99.90
61412;DHT22;47278;49.732;7.690;2022-12-07T17:25:17;3.50;99.90
61412;DHT22;47278;49.732;7.690;2022-12-07T17:27:43;3.40;99.90
61412;DHT22;47278;49.732;7.690;2022-12-07T17:30:10;3.40;99.90
61412;DHT22;47278;49.732;7.690;2022-12-07T17:32:36;3.40;99.90